Time;durP1;ratioP1;P1;durP2;ratioP2;P2;SDS_P1;SDS_P2;PMS_P1;PMS_P2;Temp;Humidity;BMP_temperature;BMP_pressure;BME280_temperature;BME280_humidity;BME280_pressure;Samples;Min_cycle;Max_cycle;Signal;HPM_P1;HPM_P2
2022/06/13 00:02:05;;;;;;;5.22;1.50;;;12.90;99.90;;;;;;4973666;28;20546;-90
2022/06/13 00:04:30;;;;;;;3.47;1.20;;;12.90;99.90;;;;;;4984521;28;20410;-89
2022/06/13 00:06:56;;;;;;;4.70;1.17;;;13.10;99.90;;;;;;4984533;28;20047;-89
2022/06/13 00:09:22;;;;;;;3.97;1.33;;;12.80;99.90;;;;;;4985015;28;20403;-89
2022/06/13 00:11:48;;;;;;;2.83;1.02;;;13.60;99.90;;;;;;4985219;28;20137;-85
2022/06/13 00:14:13;;;;;;;4.07;1.55;;;13.10;99.90;;;;;;4986361;28;20042;-88
2022/06/13 00:16:39;;;;;;;2.55;1.35;;;12.60;99.90;;;;;;4978945;28;20034;-90
2022/06/13 00:19:05;;;;;;;4.65;1.88;;;12.80;99.90;;;;;;4987140;28;20034;-87
2022/06/13 00:21:35;;;;;;;5.57;1.48;;;12.70;99.90;;;;;;4975615;28;20034;-88
2022/06/13 00:24:04;;;;;;;3.47;1.50;;;12.70;99.90;;;;;;4985980;28;20068;-88
2022/06/13 00:26:32;;;;;;;4.72;1.63;;;12.70;99.90;;;;;;4996248;28;20046;-87
2022/06/13 00:28:58;;;;;;;5.45;1.83;;;12.80;99.90;;;;;;4988208;28;20041;-88
2022/06/13 00:31:25;;;;;;;6.00;2.92;;;13.20;99.90;;;;;;4985304;28;20053;-88
2022/06/13 00:33:51;;;;;;;2.70;1.27;;;13.10;99.90;;;;;;4992214;28;20046;-90
2022/06/13 00:36:17;;;;;;;7.40;1.27;;;12.70;99.90;;;;;;4985712;28;20502;-90
2022/06/13 00:38:44;;;;;;;4.10;1.27;;;12.70;99.90;;;;;;4978690;28;20375;-89
2022/06/13 00:41:12;;;;;;;4.93;1.33;;;12.60;99.90;;;;;;4987162;28;20402;-89
2022/06/13 00:43:40;;;;;;;2.22;1.20;;;12.60;99.90;;;;;;4985217;28;20043;-89
2022/06/13 00:46:26;;;;;;;3.50;1.13;;;12.60;99.90;;;;;;4975993;28;20411;-90
2022/06/13 00:48:58;;;;;;;4.03;1.13;;;12.50;99.90;;;;;;4994714;28;20517;-88
2022/06/13 00:51:24;;;;;;;4.78;1.02;;;12.40;99.90;;;;;;4978068;28;20050;-90
2022/06/13 00:53:51;;;;;;;3.85;1.45;;;12.60;99.90;;;;;;4990120;28;20410;-89
2022/06/13 00:56:21;;;;;;;3.47;1.15;;;12.90;99.90;;;;;;4986707;28;20046;-89
2022/06/13 00:58:58;;;;;;;2.75;1.10;;;12.50;99.90;;;;;;4995230;28;20046;-90
2022/06/13 01:01:24;;;;;;;4.22;1.00;;;12.50;99.90;;;;;;4992609;28;20881;-87
2022/06/13 01:03:51;;;;;;;2.78;1.23;;;12.90;99.90;;;;;;4981445;28;20051;-88
2022/06/13 01:06:18;;;;;;;3.55;1.13;;;12.70;99.90;;;;;;4986350;28;20047;-88
2022/06/13 01:08:44;;;;;;;3.58;1.00;;;12.50;99.90;;;;;;4962311;28;20042;-87
2022/06/13 01:11:18;;;;;;;2.15;0.90;;;13.00;99.90;;;;;;4987229;28;20065;-87
2022/06/13 01:14:02;;;;;;;2.50;0.90;;;12.50;99.90;;;;;;4987435;28;20469;-90
2022/06/13 01:16:43;;;;;;;4.35;1.10;;;12.50;99.90;;;;;;4992203;28;20054;-87
2022/06/13 01:19:11;;;;;;;5.57;1.10;;;12.50;99.90;;;;;;4974824;28;20051;-87
2022/06/13 01:21:43;;;;;;;3.05;1.10;;;12.50;99.90;;;;;;4984131;28;20483;-90
2022/06/13 01:24:27;;;;;;;2.30;1.02;;;12.60;99.90;;;;;;4983694;28;20050;-90
2022/06/13 01:27:04;;;;;;;4.28;1.17;;;12.50;99.90;;;;;;4984153;28;20131;-85
2022/06/13 01:29:41;;;;;;;5.78;1.38;;;12.60;99.90;;;;;;4979071;28;20173;-90
2022/06/13 01:32:32;;;;;;;3.88;1.25;;;12.60;99.90;;;;;;4985349;28;20046;-89
2022/06/13 01:35:43;;;;;;;3.33;1.13;;;12.60;99.90;;;;;;4981942;28;20045;-89
2022/06/13 01:38:46;;;;;;;2.97;1.40;;;12.60;99.90;;;;;;4991407;28;20128;-86
2022/06/13 01:41:15;;;;;;;3.60;1.50;;;12.60;99.90;;;;;;4983401;28;20039;-86
2022/06/13 01:43:51;;;;;;;3.65;0.90;;;12.60;99.90;;;;;;4966644;28;20042;-88
2022/06/13 01:46:33;;;;;;;3.47;1.25;;;12.60;99.90;;;;;;4977688;28;20452;-87
2022/06/13 01:49:14;;;;;;;5.47;1.35;;;12.70;99.90;;;;;;4973993;28;20046;-85
2022/06/13 01:51:59;;;;;;;6.13;1.52;;;12.70;99.90;;;;;;4986381;28;20061;-86
2022/06/13 01:54:56;;;;;;;4.35;1.20;;;12.60;99.90;;;;;;4976537;28;20054;-85
2022/06/13 01:57:37;;;;;;;5.55;1.33;;;12.70;99.90;;;;;;4954326;29;20106;-90
2022/06/13 02:00:09;;;;;;;2.13;0.90;;;12.70;99.90;;;;;;4953572;29;20093;-88
2022/06/13 02:02:53;;;;;;;3.90;0.85;;;12.70;99.90;;;;;;4947838;29;20039;-85
2022/06/13 02:05:33;;;;;;;3.75;1.00;;;12.70;99.90;;;;;;4953013;29;20043;-85
2022/06/13 02:08:20;;;;;;;6.18;1.13;;;12.80;99.90;;;;;;4929003;29;20508;-87
2022/06/13 02:11:11;;;;;;;3.88;1.30;;;12.70;99.90;;;;;;4935845;29;20189;-89
2022/06/13 02:13:49;;;;;;;4.03;1.30;;;13.30;99.90;;;;;;4863652;29;20056;-85
2022/06/13 02:16:23;;;;;;;6.22;1.70;;;12.70;99.90;;;;;;4892093;29;20071;-90
2022/06/13 02:18:57;;;;;;;4.78;1.63;;;12.70;99.90;;;;;;4878058;29;20057;-88
2022/06/13 02:21:30;;;;;;;3.70;1.45;;;12.70;99.90;;;;;;4878961;29;20057;-87
2022/06/13 02:23:58;;;;;;;4.93;2.25;;;12.80;99.90;;;;;;4888617;29;20057;-91
2022/06/13 02:26:31;;;;;;;7.28;1.63;;;12.80;99.90;;;;;;4862675;29;20498;-86
2022/06/13 02:29:23;;;;;;;5.35;1.67;;;12.80;99.90;;;;;;4877865;29;20522;-88
2022/06/13 02:31:59;;;;;;;4.63;1.67;;;12.80;99.90;;;;;;4863054;29;20529;-85
2022/06/13 02:34:29;;;;;;;3.78;1.75;;;12.80;99.90;;;;;;4890772;29;20141;-87
2022/06/13 02:37:09;;;;;;;3.65;0.90;;;13.20;99.90;;;;;;4918341;29;20056;-86
2022/06/13 02:39:53;;;;;;;4.20;1.23;;;12.80;99.90;;;;;;4918104;29;20051;-87
2022/06/13 02:42:29;;;;;;;3.45;1.38;;;12.80;99.90;;;;;;4917994;29;20055;-88
2022/06/13 02:45:04;;;;;;;;;;;12.80;99.90;;;;;;4906951;29;20052;-90
2022/06/13 02:47:47;;;;;;;4.95;1.35;;;12.80;99.90;;;;;;4930790;29;20015;-90
2022/06/13 02:50:47;;;;;;;8.55;1.38;;;12.80;99.90;;;;;;4952803;28;20392;-88
2022/06/13 02:53:40;;;;;;;2.88;1.45;;;12.80;99.90;;;;;;4926657;29;20055;-86
2022/06/13 02:56:30;;;;;;;4.03;1.33;;;12.80;99.90;;;;;;4921692;29;20196;-87
2022/06/13 02:59:08;;;;;;;2.08;1.20;;;12.80;99.90;;;;;;4914746;29;20591;-88
2022/06/13 03:01:39;;;;;;;3.65;1.23;;;12.80;99.90;;;;;;4915785;29;20048;-85
2022/06/13 03:04:08;;;;;;;6.03;1.27;;;12.80;99.90;;;;;;4914620;29;20052;-85
2022/06/13 03:07:02;;;;;;;5.40;1.70;;;12.80;99.90;;;;;;4898896;29;20080;-89
2022/06/13 03:09:38;;;;;;;2.47;0.98;;;12.80;99.90;;;;;;4932381;29;20047;-88
2022/06/13 03:12:06;;;;;;;3.90;1.08;;;12.80;99.90;;;;;;4931305;29;20051;-86
2022/06/13 03:14:54;;;;;;;4.75;1.35;;;12.80;99.90;;;;;;4916372;29;20131;-85
2022/06/13 03:17:45;;;;;;;2.83;1.17;;;12.80;99.90;;;;;;4932556;29;20067;-86
2022/06/13 03:20:20;;;;;;;2.85;1.08;;;12.80;99.90;;;;;;4923357;29;20154;-85
2022/06/13 03:22:54;;;;;;;2.20;1.10;;;12.80;99.90;;;;;;4899537;29;20067;-86
2022/06/13 03:25:39;;;;;;;2.15;0.80;;;12.80;99.90;;;;;;4914473;29;20064;-87
2022/06/13 03:28:15;;;;;;;3.97;1.35;;;12.80;99.90;;;;;;4932037;29;20058;-85
2022/06/13 03:30:50;;;;;;;2.97;1.27;;;12.80;99.90;;;;;;4978493;28;20140;-85
2022/06/13 03:33:40;;;;;;;2.85;0.90;;;12.80;99.90;;;;;;4975356;28;20433;-86
2022/06/13 03:36:21;;;;;;;1.40;0.90;;;12.80;99.90;;;;;;4992967;28;20046;-86
2022/06/13 03:38:57;;;;;;;3.85;0.98;;;12.80;99.90;;;;;;4992771;28;20402;-88
2022/06/13 03:41:26;;;;;;;2.60;0.90;;;13.20;99.90;;;;;;4974981;28;20042;-86
2022/06/13 03:43:56;;;;;;;3.28;1.08;;;12.80;99.90;;;;;;4991518;28;20050;-86
2022/06/13 03:46:28;;;;;;;4.53;1.05;;;12.80;99.90;;;;;;4959104;28;20047;-86
2022/06/13 03:49:06;;;;;;;3.75;0.95;;;12.70;99.90;;;;;;4943688;28;20046;-86
2022/06/13 03:51:38;;;;;;;2.63;1.17;;;13.10;99.90;;;;;;4992547;28;20039;-87
2022/06/13 03:54:10;;;;;;;3.10;1.23;;;13.00;99.90;;;;;;4991488;28;20035;-87
2022/06/13 03:56:49;;;;;;;3.25;1.10;;;12.70;99.90;;;;;;4992654;28;20057;-88
2022/06/13 03:59:30;;;;;;;3.00;1.17;;;12.70;99.90;;;;;;4974973;28;20475;-86
2022/06/13 04:02:03;;;;;;;2.78;0.85;;;12.70;99.90;;;;;;4959112;28;20057;-86
2022/06/13 04:04:37;;;;;;;3.95;0.90;;;12.70;99.90;;;;;;4992335;28;20115;-86
2022/06/13 04:07:03;;;;;;;4.20;1.00;;;12.90;99.90;;;;;;4975381;28;20046;-86
2022/06/13 04:09:34;;;;;;;3.30;0.77;;;12.80;99.90;;;;;;4975210;28;20454;-86
2022/06/13 04:12:30;;;;;;;3.97;1.00;;;12.70;99.90;;;;;;4992657;28;20622;-86
2022/06/13 04:15:21;;;;;;;5.10;0.98;;;12.90;99.90;;;;;;4971967;28;20049;-88
2022/06/13 04:17:52;;;;;;;2.97;0.93;;;12.90;99.90;;;;;;4987823;28;20058;-86
2022/06/13 04:20:39;;;;;;;2.92;0.60;;;12.90;99.90;;;;;;4959275;28;20058;-85
2022/06/13 04:23:17;;;;;;;3.47;0.77;;;13.00;99.90;;;;;;4991992;28;20047;-85
2022/06/13 04:25:49;;;;;;;1.48;0.70;;;13.10;99.90;;;;;;4992426;28;20177;-86
2022/06/13 04:28:49;;;;;;;2.00;0.80;;;13.40;99.90;;;;;;4992423;28;20043;-87
2022/06/13 04:31:18;;;;;;;2.65;0.80;;;13.10;99.90;;;;;;4993837;28;20050;-87
2022/06/13 04:33:53;;;;;;;3.10;1.10;;;13.10;99.90;;;;;;4976885;28;20470;-87
2022/06/13 04:36:20;;;;;;;2.72;1.17;;;13.20;99.90;;;;;;4991748;28;20155;-87
2022/06/13 04:38:50;;;;;;;1.60;0.90;;;13.30;99.90;;;;;;4992344;28;20133;-87
2022/06/13 04:41:16;;;;;;;2.03;0.85;;;13.50;99.90;;;;;;4992437;28;20482;-86
2022/06/13 04:43:47;;;;;;;7.63;1.17;;;13.30;99.90;;;;;;4992100;28;20097;-86
2022/06/13 04:46:25;;;;;;;2.58;0.90;;;13.40;99.90;;;;;;4975196;28;20126;-86
2022/06/13 04:48:54;;;;;;;2.40;0.85;;;14.10;99.90;;;;;;4992223;28;20449;-86
2022/06/13 04:51:30;;;;;;;2.60;0.88;;;13.50;99.90;;;;;;4992047;28;20048;-86
2022/06/13 04:54:14;;;;;;;;;;;13.60;99.90;;;;;;4992405;28;20448;-85
2022/06/13 04:56:40;;;;;;;7.07;1.92;;;13.70;99.90;;;;;;4992063;28;19932;-87
2022/06/13 04:59:13;;;;;;;4.15;1.13;;;13.80;99.90;;;;;;4994597;28;20042;-86
2022/06/13 05:01:47;;;;;;;6.07;1.00;;;13.80;99.90;;;;;;4962174;28;20046;-85
2022/06/13 05:04:16;;;;;;;2.92;1.00;;;13.80;99.90;;;;;;4994115;28;20046;-87
2022/06/13 05:06:51;;;;;;;3.75;0.70;;;14.30;99.90;;;;;;4995755;28;20100;-87
2022/06/13 05:09:35;;;;;;;3.22;0.60;;;13.80;99.90;;;;;;4988097;28;20042;-87
2022/06/13 05:12:19;;;;;;;1.48;0.50;;;13.70;99.90;;;;;;4995453;28;20053;-89
2022/06/13 05:14:48;;;;;;;1.35;0.70;;;13.70;99.90;;;;;;4995371;28;20409;-87
2022/06/13 05:17:14;;;;;;;3.17;0.95;;;13.30;99.90;;;;;;4961662;28;20047;-88
2022/06/13 05:19:54;;;;;;;0.82;0.50;;;13.20;99.90;;;;;;4995143;28;20050;-87
2022/06/13 05:22:38;;;;;;;1.33;0.30;;;13.10;99.90;;;;;;4994958;28;20066;-85
2022/06/13 05:25:13;;;;;;;0.32;0.25;;;13.00;99.90;;;;;;4995254;28;20479;-86
2022/06/13 05:27:38;;;;;;;1.13;0.25;;;12.90;99.90;;;;;;4995324;28;20065;-87
2022/06/13 05:30:04;;;;;;;0.52;0.20;;;13.50;99.90;;;;;;4978015;28;20486;-87
2022/06/13 05:32:30;;;;;;;1.23;0.30;;;12.90;99.90;;;;;;4977673;28;20057;-90
2022/06/13 05:34:56;;;;;;;0.93;0.40;;;12.90;99.90;;;;;;4994899;28;20042;-87
2022/06/13 05:37:23;;;;;;;2.33;0.40;;;13.20;99.90;;;;;;4977486;28;20132;-87
2022/06/13 05:39:49;;;;;;;2.47;0.45;;;13.50;99.90;;;;;;4995247;28;20402;-88
2022/06/13 05:42:15;;;;;;;2.17;0.60;;;13.20;99.90;;;;;;4977666;28;20129;-89
2022/06/13 05:44:41;;;;;;;2.20;0.28;;;13.30;99.90;;;;;;4977237;28;20133;-88
2022/06/13 05:47:15;;;;;;;1.77;0.25;;;13.40;99.90;;;;;;4977617;28;20070;-88
2022/06/13 05:49:40;;;;;;;1.33;0.38;;;14.10;99.90;;;;;;4976795;28;20212;-88
2022/06/13 05:52:06;;;;;;;1.27;0.43;;;13.60;99.90;;;;;;4977185;28;20070;-88
2022/06/13 05:54:32;;;;;;;2.85;0.50;;;13.70;99.90;;;;;;4977308;28;20056;-90
2022/06/13 05:56:58;;;;;;;0.90;0.20;;;13.80;99.90;;;;;;4977211;28;20206;-88
2022/06/13 05:59:25;;;;;;;1.48;0.47;;;14.10;99.90;;;;;;4976932;28;20042;-89
2022/06/13 06:01:51;;;;;;;4.50;0.50;;;14.30;99.90;;;;;;4994665;28;20482;-89
2022/06/13 06:04:17;;;;;;;3.42;0.77;;;14.40;99.90;;;;;;4994618;28;20045;-87
2022/06/13 06:06:43;;;;;;;4.43;0.50;;;14.40;99.90;;;;;;4961021;28;20050;-86
2022/06/13 06:09:12;;;;;;;2.58;0.57;;;14.40;99.90;;;;;;4976617;28;20054;-87
2022/06/13 06:11:38;;;;;;;2.13;0.30;;;14.40;99.90;;;;;;4994442;28;20070;-87
2022/06/13 06:14:04;;;;;;;2.35;0.50;;;14.40;99.90;;;;;;4977008;28;20074;-90
2022/06/13 06:16:29;;;;;;;4.22;1.27;;;14.70;99.90;;;;;;4977356;28;20068;-87
2022/06/13 06:18:56;;;;;;;1.70;0.50;;;14.80;99.90;;;;;;4976603;28;20534;-88
2022/06/13 06:21:22;;;;;;;1.48;0.50;;;14.60;99.90;;;;;;4976970;28;20050;-91
2022/06/13 06:23:50;;;;;;;3.38;0.50;;;14.70;99.90;;;;;;4960526;28;20038;-90
2022/06/13 06:26:19;;;;;;;3.95;0.40;;;14.70;99.90;;;;;;4994333;28;20043;-88
2022/06/13 06:28:45;;;;;;;2.58;0.50;;;14.70;99.90;;;;;;4976810;28;20064;-88
2022/06/13 06:31:11;;;;;;;3.22;0.63;;;14.60;99.90;;;;;;4976349;28;20050;-87
2022/06/13 06:33:37;;;;;;;1.35;0.40;;;14.30;99.90;;;;;;4977166;28;20042;-89
2022/06/13 06:36:03;;;;;;;1.33;0.30;;;14.00;99.90;;;;;;4994421;28;20144;-88
2022/06/13 06:38:33;;;;;;;1.80;0.40;;;13.80;99.90;;;;;;4975838;28;20039;-88
2022/06/13 06:40:59;;;;;;;3.38;0.40;;;13.80;99.90;;;;;;4976808;28;20054;-90
2022/06/13 06:43:25;;;;;;;3.65;0.55;;;13.80;99.90;;;;;;4976140;28;20053;-89
2022/06/13 06:45:51;;;;;;;4.60;0.60;;;13.80;99.90;;;;;;4976709;28;20046;-88
2022/06/13 06:48:22;;;;;;;2.10;0.30;;;13.80;99.90;;;;;;4976173;28;20501;-86
2022/06/13 06:50:49;;;;;;;2.20;0.30;;;13.80;99.90;;;;;;4975531;28;20495;-88
2022/06/13 06:53:26;;;;;;;1.58;0.50;;;13.90;99.90;;;;;;4976465;28;20119;-88
2022/06/13 07:01:22;;;;;;;0.68;0.30;;;14.50;99.90;;;;;;4994026;28;20046;-88
2022/06/13 07:03:51;;;;;;;0.20;0.15;;;14.70;99.90;;;;;;4993463;28;20038;-89
2022/06/13 07:06:18;;;;;;;1.60;0.30;;;14.90;99.90;;;;;;4945547;28;20041;-88
2022/06/13 07:08:44;;;;;;;5.07;0.50;;;14.90;99.90;;;;;;4974890;28;20045;-88
2022/06/13 07:14:09;;;;;;;4.75;0.50;;;14.80;99.90;;;;;;4987586;28;20089;-89
2022/06/13 07:16:35;;;;;;;2.03;0.30;;;14.80;99.90;;;;;;4975212;28;20509;-88
2022/06/13 07:19:00;;;;;;;1.58;0.30;;;14.70;99.90;;;;;;4950126;28;20049;-89
2022/06/13 07:21:28;;;;;;;1.38;0.20;;;14.60;99.90;;;;;;4975746;28;20046;-89
2022/06/13 07:23:54;;;;;;;1.15;0.28;;;14.60;99.90;;;;;;4974262;28;20049;-90
2022/06/13 07:26:25;;;;;;;0.95;0.30;;;14.60;99.90;;;;;;4975642;28;20065;-89
2022/06/13 07:28:54;;;;;;;1.25;0.30;;;14.50;99.90;;;;;;4975598;28;20053;-89
2022/06/13 07:31:27;;;;;;;4.03;0.50;;;14.70;99.90;;;;;;4975676;28;20463;-91
2022/06/13 07:33:58;;;;;;;2.85;0.40;;;14.70;99.90;;;;;;4975411;28;20046;-91
2022/06/13 07:36:33;;;;;;;3.92;0.40;;;15.10;99.90;;;;;;4976948;28;20088;-88
2022/06/13 07:38:59;;;;;;;2.47;0.50;;;15.60;99.90;;;;;;4975236;28;20041;-88
2022/06/13 07:41:30;;;;;;;4.50;0.50;;;15.70;99.90;;;;;;4972844;28;20101;-89
2022/06/13 07:44:06;;;;;;;3.80;1.00;;;16.30;99.90;;;;;;4975331;28;20092;-88
2022/06/13 07:46:33;;;;;;;6.95;0.60;;;16.10;99.90;;;;;;4973835;28;20046;-87
2022/06/13 07:48:59;;;;;;;3.45;0.50;;;16.20;99.90;;;;;;4971361;28;20049;-89
2022/06/13 07:51:27;;;;;;;3.03;0.60;;;16.20;99.90;;;;;;4988310;28;20071;-87
2022/06/13 07:53:58;;;;;;;7.15;1.23;;;16.10;99.90;;;;;;4975587;28;20494;-89
2022/06/13 07:56:28;;;;;;;3.25;0.50;;;16.20;99.90;;;;;;4974793;28;20054;-87
2022/06/13 07:58:54;;;;;;;2.50;0.80;;;16.20;99.90;;;;;;4992889;28;20046;-86
2022/06/13 08:01:24;;;;;;;8.23;0.30;;;16.10;99.90;;;;;;4974475;28;20039;-87
2022/06/13 08:03:51;;;;;;;4.05;0.35;;;15.90;99.90;;;;;;4992792;28;20043;-87
2022/06/13 08:06:20;;;;;;;2.38;0.50;;;16.00;99.90;;;;;;4996729;28;20047;-86
2022/06/13 08:08:49;;;;;;;3.30;0.52;;;16.10;99.90;;;;;;4991682;28;20050;-89
2022/06/13 08:11:18;;;;;;;1.98;0.30;;;16.10;99.90;;;;;;4991641;28;20104;-86
2022/06/13 08:13:44;;;;;;;4.05;0.50;;;15.90;99.90;;;;;;4975268;28;20502;-87
2022/06/13 08:16:11;;;;;;;5.35;0.57;;;16.00;99.90;;;;;;4975122;28;20479;-86
2022/06/13 08:18:38;;;;;;;1.80;0.40;;;16.10;99.90;;;;;;4972893;28;20050;-84
2022/06/13 08:21:04;;;;;;;2.40;0.63;;;16.40;99.90;;;;;;4974992;28;20054;-87
2022/06/13 08:23:30;;;;;;;2.83;0.40;;;16.40;99.90;;;;;;4992619;28;20042;-86
2022/06/13 08:25:56;;;;;;;3.25;0.40;;;16.50;99.90;;;;;;4974456;28;20047;-87
2022/06/13 08:28:22;;;;;;;2.75;0.45;;;16.70;99.90;;;;;;4992389;28;20113;-85
2022/06/13 08:30:52;;;;;;;2.30;0.40;;;16.80;99.90;;;;;;4974899;28;20039;-84
2022/06/13 08:33:20;;;;;;;6.05;0.60;;;16.70;99.90;;;;;;4993414;28;20494;-86
2022/06/13 08:35:47;;;;;;;3.63;0.50;;;16.90;99.90;;;;;;4994757;28;20046;-86
2022/06/13 08:38:23;;;;;;;2.88;0.30;;;16.90;99.90;;;;;;5004296;28;20046;-88
2022/06/13 08:41:10;;;;;;;2.90;0.55;;;17.20;99.90;;;;;;4988289;28;20051;-84
2022/06/13 08:43:35;;;;;;;3.47;0.40;;;17.10;99.90;;;;;;4995822;28;20066;-86
2022/06/13 08:46:14;;;;;;;3.08;0.50;;;17.30;99.90;;;;;;4995484;28;20487;-93
2022/06/13 08:48:44;;;;;;;4.40;0.28;;;17.40;99.90;;;;;;4995627;28;20061;-86
2022/06/13 08:51:37;;;;;;;3.78;0.47;;;17.70;99.90;;;;;;4978359;28;20054;-86
2022/06/13 08:54:07;;;;;;;1.73;0.40;;;17.60;99.90;;;;;;4977839;28;20124;-86
2022/06/13 08:56:37;;;;;;;2.35;0.35;;;17.40;99.90;;;;;;4995047;28;20050;-88
2022/06/13 08:59:24;;;;;;;1.33;0.30;;;17.40;99.90;;;;;;4996158;28;20189;-86
2022/06/13 09:02:20;;;;;;;2.38;0.45;;;17.60;99.90;;;;;;4976367;28;20533;-87
2022/06/13 09:04:59;;;;;;;3.72;0.30;;;17.80;99.90;;;;;;4916825;29;20091;-87
2022/06/13 09:07:31;;;;;;;3.10;0.30;;;17.90;99.90;;;;;;4916905;29;20055;-87
2022/06/13 09:10:00;;;;;;;3.90;0.30;;;18.20;99.90;;;;;;4917896;29;20322;-85
2022/06/13 09:12:50;;;;;;;4.00;0.30;;;18.00;99.90;;;;;;4916796;29;20048;-86
2022/06/13 09:15:21;;;;;;;6.45;0.68;;;18.30;99.90;;;;;;4925799;29;20051;-86
2022/06/13 09:18:13;;;;;;;5.50;0.45;;;18.30;99.90;;;;;;4919142;29;20528;-88
2022/06/13 09:20:56;;;;;;;5.25;0.45;;;18.30;99.90;;;;;;4932056;29;20524;-86
2022/06/13 09:23:41;;;;;;;4.40;0.80;;;18.50;99.90;;;;;;4918295;29;20564;-86
2022/06/13 09:26:29;;;;;;;4.75;0.50;;;18.60;99.90;;;;;;4919100;29;20039;-87
2022/06/13 09:29:11;;;;;;;4.20;0.40;;;18.60;99.90;;;;;;4919274;29;20134;-88
2022/06/13 09:31:43;;;;;;;2.72;0.30;;;18.60;99.90;;;;;;4933425;29;20047;-88
2022/06/13 09:34:25;;;;;;;1.77;0.30;;;18.80;99.90;;;;;;4914239;29;20056;-85
2022/06/13 09:37:04;;;;;;;2.08;0.30;;;18.70;99.90;;;;;;4918110;29;20056;-87
2022/06/13 09:39:30;;;;;;;2.42;0.30;;;18.40;99.90;;;;;;4935030;29;20043;-86
2022/06/13 09:42:15;;;;;;;5.40;0.50;;;18.40;99.90;;;;;;4953415;28;20519;-85
2022/06/13 09:44:44;;;;;;;4.50;0.60;;;18.50;99.90;;;;;;4993248;28;20398;-85
2022/06/13 09:47:48;;;;;;;2.88;0.40;;;18.70;99.90;;;;;;4977936;28;20434;-88
2022/06/13 09:50:30;;;;;;;7.43;0.60;;;18.80;99.90;;;;;;4934868;29;20056;-85
2022/06/13 09:53:11;;;;;;;7.03;0.60;;;18.90;99.90;;;;;;4917716;29;20377;-85
2022/06/13 09:56:22;;;;;;;2.70;0.50;;;19.20;99.90;;;;;;4934287;29;20086;-86
2022/06/13 09:59:06;;;;;;;5.15;0.50;;;19.30;99.90;;;;;;4915473;29;20243;-86
2022/06/13 10:01:51;;;;;;;4.32;0.50;;;19.20;99.90;;;;;;4913475;29;20501;-84
2022/06/13 10:04:47;;;;;;;3.63;0.60;;;19.20;99.90;;;;;;4914378;29;20151;-86
2022/06/13 10:07:29;;;;;;;2.88;0.65;;;19.30;99.90;;;;;;4907552;29;20104;-86
2022/06/13 10:10:14;;;;;;;3.88;1.13;;;19.30;99.90;;;;;;4914868;29;20176;-87
2022/06/13 10:12:46;;;;;;;;;;;19.20;99.90;;;;;;4899481;29;20064;-89
2022/06/13 10:15:29;;;;;;;2.80;0.45;;;19.40;99.90;;;;;;4899187;29;20299;-87
2022/06/13 10:18:23;;;;;;;1.63;0.38;;;19.60;99.90;;;;;;4914154;29;20092;-85
2022/06/13 10:20:54;;;;;;;7.50;0.80;;;19.20;99.90;;;;;;4914831;29;20044;-85
2022/06/13 10:23:46;;;;;;;5.85;0.70;;;19.40;99.90;;;;;;4898111;29;20067;-85
2022/06/13 10:26:18;;;;;;;4.50;0.50;;;19.60;99.90;;;;;;4850341;29;20053;-87
2022/06/13 10:29:00;;;;;;;3.10;0.50;;;19.80;99.90;;;;;;4877973;29;20477;-86
2022/06/13 10:31:48;;;;;;;4.10;0.40;;;19.90;99.90;;;;;;4863057;29;20160;-85
2022/06/13 10:34:29;;;;;;;4.97;0.60;;;20.10;99.30;;;;;;4862438;29;20546;-86
2022/06/13 10:37:13;;;;;;;3.78;0.47;;;19.70;99.90;;;;;;4896468;29;20214;-85
2022/06/13 10:39:38;;;;;;;4.90;0.60;;;19.90;99.90;;;;;;4896541;29;20055;-86
2022/06/13 10:42:13;;;;;;;4.00;0.70;;;20.00;99.90;;;;;;4896565;29;20052;-87
2022/06/13 10:44:39;;;;;;;5.38;0.40;;;19.90;99.90;;;;;;4896568;29;20060;-86
2022/06/13 10:47:26;;;;;;;12.80;1.40;;;19.80;99.90;;;;;;4881092;29;20135;-86
2022/06/13 10:50:06;;;;;;;4.15;0.60;;;20.10;99.90;;;;;;4880910;29;20466;-86
2022/06/13 10:52:37;;;;;;;6.00;1.08;;;19.90;99.90;;;;;;4880672;29;20052;-86
2022/06/13 10:55:08;;;;;;;3.60;0.70;;;19.80;99.90;;;;;;4880668;29;20048;-87
2022/06/13 10:57:51;;;;;;;2.97;0.70;;;19.80;99.90;;;;;;4896034;29;20111;-88
2022/06/13 11:00:25;;;;;;;5.38;0.65;;;19.90;99.90;;;;;;4880625;29;20060;-86
2022/06/13 11:02:51;;;;;;;5.53;0.60;;;19.80;99.90;;;;;;4938963;28;20066;-87
2022/06/13 11:05:18;;;;;;;3.78;0.40;;;19.70;99.90;;;;;;4993517;28;20039;-88
2022/06/13 11:07:47;;;;;;;6.18;0.80;;;19.90;99.90;;;;;;4975330;28;20053;-85
2022/06/13 11:10:33;;;;;;;6.40;0.65;;;19.90;99.90;;;;;;4973243;28;20133;-86
2022/06/13 11:13:01;;;;;;;6.93;0.65;;;20.30;99.90;;;;;;4993770;28;20100;-86
2022/06/13 11:24:39;;;;;;;7.60;0.65;;;20.60;99.90;;;;;;4993501;28;20050;-85
2022/06/13 11:30:28;;;;;;;3.00;0.50;;;20.80;98.60;;;;;;4993476;28;20056;-86
2022/06/13 11:33:03;;;;;;;3.45;0.50;;;21.10;98.80;;;;;;4933219;29;20063;-86
2022/06/13 11:35:37;;;;;;;5.30;0.57;;;21.00;98.60;;;;;;4917612;29;20139;-84
2022/06/13 11:38:19;;;;;;;3.42;0.40;;;21.10;98.50;;;;;;4933389;29;20134;-85
2022/06/13 11:40:48;;;;;;;8.25;1.00;;;20.90;99.00;;;;;;4917613;29;20048;-85
2022/06/13 11:43:30;;;;;;;2.35;0.80;;;20.60;99.40;;;;;;4933506;29;20184;-85
2022/06/13 11:45:59;;;;;;;5.43;0.63;;;20.50;98.90;;;;;;4933621;29;20047;-85
2022/06/13 11:48:26;;;;;;;2.70;0.30;;;20.80;98.10;;;;;;4933249;29;20047;-84
2022/06/13 11:50:59;;;;;;;1.35;0.20;;;20.50;98.50;;;;;;4933127;29;20101;-85
2022/06/13 11:53:38;;;;;;;3.30;0.70;;;20.20;97.70;;;;;;4933380;29;20051;-86
2022/06/13 11:56:20;;;;;;;2.20;0.30;;;20.10;98.00;;;;;;4917344;28;20179;-83
2022/06/13 11:58:49;;;;;;;2.80;0.30;;;20.10;99.10;;;;;;4933277;29;20128;-84
2022/06/13 12:01:35;;;;;;;1.88;0.30;;;20.20;98.50;;;;;;4932033;29;20051;-83
2022/06/13 12:04:24;;;;;;;2.13;0.25;;;20.70;98.50;;;;;;4924793;29;20527;-85
2022/06/13 12:06:57;;;;;;;3.30;0.32;;;20.90;96.50;;;;;;4928218;29;20106;-86
2022/06/13 12:09:31;;;;;;;5.53;0.50;;;21.40;96.60;;;;;;4939082;28;20551;-86
2022/06/13 12:12:00;;;;;;;3.75;0.40;;;21.30;94.90;;;;;;4969309;28;20050;-85
2022/06/13 12:14:35;;;;;;;1.75;0.40;;;21.30;95.40;;;;;;4967148;28;21046;-84
2022/06/13 12:17:27;;;;;;;2.00;0.30;;;21.20;95.50;;;;;;4964895;28;20118;-83
2022/06/13 12:20:01;;;;;;;3.40;0.60;;;20.90;95.50;;;;;;4964209;28;20035;-86
2022/06/13 12:22:32;;;;;;;1.85;0.30;;;20.50;96.60;;;;;;4966841;28;20129;-86
2022/06/13 12:25:24;;;;;;;4.95;0.30;;;20.50;96.30;;;;;;4964680;28;20125;-85
2022/06/13 12:28:13;;;;;;;1.45;0.30;;;20.60;97.50;;;;;;4962358;28;20133;-86
2022/06/13 12:31:02;;;;;;;3.13;0.30;;;20.90;97.40;;;;;;4969574;28;20043;-86
2022/06/13 12:33:51;;;;;;;4.25;0.30;;;20.80;95.20;;;;;;4966182;28;20050;-85
2022/06/13 12:36:49;;;;;;;4.00;0.63;;;21.00;95.40;;;;;;4966853;28;20057;-86
2022/06/13 12:39:31;;;;;;;1.67;0.38;;;21.10;96.10;;;;;;4964259;28;20074;-86
2022/06/13 12:42:24;;;;;;;3.78;0.28;;;21.20;95.30;;;;;;4968019;28;20058;-86
2022/06/13 12:45:33;;;;;;;2.58;0.20;;;21.40;93.70;;;;;;4961246;28;20129;-84
2022/06/13 12:48:10;;;;;;;7.38;0.90;;;21.00;94.90;;;;;;4964574;28;20082;-84
2022/06/13 12:50:49;;;;;;;4.25;0.35;;;21.00;95.50;;;;;;4967822;28;20050;-84
2022/06/13 12:53:54;;;;;;;2.83;0.30;;;21.00;95.30;;;;;;4975435;28;20487;-84
2022/06/13 12:56:47;;;;;;;2.17;0.20;;;21.00;95.50;;;;;;4973372;28;20169;-84
2022/06/13 12:59:27;;;;;;;4.28;0.30;;;20.90;94.90;;;;;;4931802;29;20054;-83
2022/06/13 13:02:14;;;;;;;2.50;0.30;;;21.10;94.60;;;;;;4929158;29;20053;-85
2022/06/13 13:05:17;;;;;;;0.70;0.10;;;20.70;94.50;;;;;;4935259;29;20076;-86
2022/06/13 13:07:48;;;;;;;2.17;0.30;;;20.30;94.80;;;;;;4935561;29;20043;-86
2022/06/13 13:10:42;;;;;;;1.50;0.20;;;20.60;95.00;;;;;;4919154;29;20055;-86
2022/06/13 13:13:33;;;;;;;2.30;0.22;;;20.40;95.30;;;;;;4907127;29;20052;-87
2022/06/13 13:16:05;;;;;;;1.73;0.20;;;20.60;96.20;;;;;;4930675;28;20064;-86
2022/06/13 13:18:39;;;;;;;2.70;0.30;;;20.60;96.70;;;;;;4934089;29;20043;-86
2022/06/13 13:21:19;;;;;;;3.15;0.40;;;20.80;95.60;;;;;;4919154;29;20083;-85
2022/06/13 13:23:49;;;;;;;3.50;0.40;;;21.10;96.00;;;;;;4919190;29;20063;-86
2022/06/13 13:26:41;;;;;;;4.07;0.43;;;21.30;96.00;;;;;;4934713;29;20114;-85
2022/06/13 13:29:25;;;;;;;2.10;0.30;;;21.10;95.80;;;;;;4934403;29;20161;-85
2022/06/13 13:32:04;;;;;;;4.85;0.63;;;21.00;95.90;;;;;;4934545;29;20415;-85
2022/06/13 13:34:44;;;;;;;3.72;0.40;;;21.00;96.30;;;;;;4934959;29;20044;-84
2022/06/13 13:37:35;;;;;;;1.35;0.30;;;21.00;94.60;;;;;;4977144;28;20070;-83
2022/06/13 13:40:19;;;;;;;2.42;0.30;;;20.80;94.40;;;;;;4979839;28;20053;-85
2022/06/13 13:43:01;;;;;;;2.63;0.30;;;20.60;94.70;;;;;;4986564;28;20046;-86
2022/06/13 13:45:33;;;;;;;2.85;0.50;;;20.10;95.20;;;;;;4987395;28;20042;-86
2022/06/13 13:48:11;;;;;;;2.80;0.40;;;19.80;95.90;;;;;;4986572;28;20034;-86
2022/06/13 13:51:05;;;;;;;2.15;0.40;;;20.10;96.40;;;;;;4986221;28;20045;-86
2022/06/13 13:53:49;;;;;;;2.40;0.30;;;20.30;96.50;;;;;;4977001;28;20046;-86